Time;durP1;ratioP1;P1;durP2;ratioP2;P2;SDS_P1;SDS_P2;PMS_P1;PMS_P2;Temp;Humidity;BMP_temperature;BMP_pressure;BME280_temperature;BME280_humidity;BME280_pressure;Samples;Min_cycle;Max_cycle;Signal;HPM_P1;HPM_P2
2023/10/30 00:00:12;;;;;;;12.30;6.60;;;;;;;11.04;78.16;99915.77;78368;1298;3053345;-68
2023/10/30 00:02:39;;;;;;;11.30;6.00;;;;;;;10.91;78.42;99919.98;79581;1295;3011660;-69
2023/10/30 00:05:09;;;;;;;11.70;6.80;;;;;;;10.65;79.51;99912.44;79102;1295;3013459;-71
2023/10/30 00:07:35;;;;;;;10.70;6.30;;;;;;;10.47;80.24;99919.17;79550;1296;3021336;-68
2023/10/30 00:10:02;;;;;;;13.40;7.10;;;;;;;10.26;81.57;99925.70;79623;1299;3011518;-68
2023/10/30 00:12:30;;;;;;;10.50;6.30;;;;;;;10.15;82.27;99936.39;78330;1296;3026077;-69
2023/10/30 00:14:57;;;;;;;9.40;5.00;;;;;;;10.04;82.72;99937.96;79657;1298;3012963;-68
2023/10/30 00:17:23;;;;;;;10.20;5.40;;;;;;;10.48;81.62;99931.70;79660;1295;3013098;-69
2023/10/30 00:19:51;;;;;;;10.50;4.90;;;;;;;10.93;79.51;99928.28;78394;1298;3027677;-68
2023/10/30 00:22:18;;;;;;;8.40;5.30;;;;;;;10.85;79.04;99921.52;79525;1295;3018555;-70
2023/10/30 00:24:45;;;;;;;10.10;5.90;;;;;;;10.62;79.78;99923.98;79549;1298;3011711;-67
2023/10/30 00:27:13;;;;;;;9.80;5.10;;;;;;;10.38;80.58;99923.65;78397;1299;3025514;-67
2023/10/30 00:29:40;;;;;;;9.30;5.10;;;;;;;10.31;80.76;99919.45;79660;1295;3013151;-66
2023/10/30 00:32:07;;;;;;;11.80;5.40;;;;;;;10.02;82.27;99923.56;79676;1301;3013078;-71
2023/10/30 00:34:35;;;;;;;8.70;4.20;;;;;;;9.97;83.04;99924.55;78424;1295;3070262;-74
2023/10/30 00:37:02;;;;;;;10.40;4.90;;;;;;;10.31;82.14;99924.33;79620;1295;3014104;-74
2023/10/30 00:39:32;;;;;;;10.30;5.40;;;;;;;10.81;80.12;99927.89;79430;1301;3011874;-70
2023/10/30 00:42:00;;;;;;;13.50;5.90;;;;;;;10.67;80.18;99935.30;78323;1298;3052736;-72
2023/10/30 00:44:27;;;;;;;12.20;5.60;;;;;;;10.42;80.96;99931.35;79539;1298;3013132;-75
2023/10/30 00:46:53;;;;;;;11.20;5.60;;;;;;;10.22;81.72;99933.24;79499;1301;3011914;-71
2023/10/30 00:49:21;;;;;;;17.70;5.90;;;;;;;10.12;82.08;99932.52;78355;1296;3069102;-72
2023/10/30 00:51:48;;;;;;;13.60;6.20;;;;;;;9.90;83.07;99938.15;79619;1295;3012987;-69
2023/10/30 00:54:14;;;;;;;9.80;5.00;;;;;;;9.71;84.42;99938.08;79373;1294;3013014;-73
2023/10/30 00:56:43;;;;;;;13.50;6.00;;;;;;;10.15;83.23;99935.36;78188;1295;3025905;-69
2023/10/30 00:59:10;;;;;;;17.80;7.30;;;;;;;10.64;80.65;99938.39;79564;1298;3013630;-72
2023/10/30 01:01:36;;;;;;;20.10;8.60;;;;;;;10.58;80.59;99936.27;79528;1298;3012786;-68
2023/10/30 01:04:05;;;;;;;20.80;8.70;;;;;;;10.38;81.27;99940.45;78417;1295;3068588;-72
2023/10/30 01:06:33;;;;;;;24.30;9.60;;;;;;;10.25;81.56;99939.67;79583;1295;3011864;-69
2023/10/30 01:09:00;;;;;;;23.40;9.60;;;;;;;10.10;82.52;99931.77;79574;1295;3011549;-69
2023/10/30 01:11:28;;;;;;;40.80;12.20;;;;;;;10.01;82.86;99925.05;78125;1298;3052246;-70
2023/10/30 01:13:54;;;;;;;24.40;9.40;;;;;;;9.93;83.31;99921.04;79486;1301;3012973;-73
2023/10/30 01:16:21;;;;;;;33.90;10.80;;;;;;;10.47;81.97;99920.36;79473;1298;3011537;-72
2023/10/30 01:18:48;;;;;;;34.20;11.00;;;;;;;10.97;79.27;99911.39;78264;1295;3026113;-70
2023/10/30 01:21:15;;;;;;;34.40;12.00;;;;;;;10.97;78.84;99912.81;79323;1300;3019078;-70
2023/10/30 01:23:41;;;;;;;31.40;13.10;;;;;;;10.80;79.12;99907.98;79431;1300;3011670;-72
2023/10/30 01:26:09;;;;;;;38.20;14.00;;;;;;;10.65;79.49;99909.98;78325;1295;3026546;-70
2023/10/30 01:28:35;;;;;;;27.70;12.60;;;;;;;10.45;80.33;99918.92;79486;1298;3018663;-69
2023/10/30 01:31:04;;;;;;;31.50;13.20;;;;;;;10.37;80.51;99920.55;79564;1298;3012160;-66
2023/10/30 01:33:32;;;;;;;32.70;14.20;;;;;;;10.28;80.83;99914.54;78267;1298;3068766;-73
2023/10/30 01:35:59;;;;;;;27.50;10.90;;;;;;;10.18;81.44;99915.56;79515;1295;3018917;-70
2023/10/30 01:38:25;;;;;;;36.30;13.90;;;;;;;10.69;80.54;99910.83;79597;1295;3011993;-66
2023/10/30 01:40:53;;;;;;;35.50;13.20;;;;;;;11.21;78.18;99906.02;78296;1295;3027287;-69
2023/10/30 01:43:32;;;;;;;35.90;15.30;;;;;;;11.30;77.42;99908.67;79514;1295;3012989;-65
2023/10/30 01:46:01;;;;;;;39.40;14.90;;;;;;;11.18;77.35;99903.25;78198;1296;3052987;-67
2023/10/30 01:48:29;;;;;;;37.60;15.60;;;;;;;11.05;77.60;99905.02;79503;1295;3013042;-71
2023/10/30 01:50:56;;;;;;;38.40;14.80;;;;;;;10.80;78.12;99907.58;79548;1295;3011472;-65
2023/10/30 01:53:23;;;;;;;37.20;15.10;;;;;;;10.56;79.36;99909.08;78291;1298;3047930;-71
2023/10/30 01:55:50;;;;;;;36.50;15.70;;;;;;;10.38;80.03;99913.51;79555;1295;3018787;-65
2023/10/30 01:58:17;;;;;;;38.20;13.40;;;;;;;10.24;81.23;99903.52;79465;1303;3013010;-69
2023/10/30 02:00:47;;;;;;;30.90;13.20;;;;;;;10.75;79.78;99893.86;78229;1300;3026649;-68
2023/10/30 02:03:14;;;;;;;32.20;13.10;;;;;;;11.23;77.62;99889.82;79508;1295;3011655;-72
2023/10/30 02:05:43;;;;;;;37.50;13.80;;;;;;;11.26;77.03;99889.27;79110;1298;3011823;-72
2023/10/30 02:08:10;;;;;;;35.00;14.30;;;;;;;11.17;76.97;99890.48;79571;1295;3013563;-73
2023/10/30 02:10:36;;;;;;;39.70;14.30;;;;;;;10.88;77.81;99896.67;79620;1296;3011460;-67
2023/10/30 02:13:07;;;;;;;33.60;15.10;;;;;;;10.69;78.19;99898.57;78324;1296;3026853;-73
2023/10/30 02:15:34;;;;;;;33.40;13.80;;;;;;;10.47;79.17;99897.45;79538;1298;3013480;-70
2023/10/30 02:18:03;;;;;;;28.90;11.60;;;;;;;10.27;80.12;99903.90;79097;1295;3011674;-68
2023/10/30 02:20:29;;;;;;;25.60;11.80;;;;;;;10.05;80.94;99910.66;79496;1298;3012824;-67
2023/10/30 02:22:56;;;;;;;24.60;9.80;;;;;;;9.95;81.55;99916.77;79520;1298;3014143;-71
2023/10/30 02:25:24;;;;;;;24.50;10.30;;;;;;;10.43;80.60;99914.62;78325;1299;3026223;-68
2023/10/30 02:27:51;;;;;;;29.30;11.80;;;;;;;10.90;78.43;99908.64;79407;1296;3013105;-71
2023/10/30 02:30:18;;;;;;;26.30;10.80;;;;;;;10.96;77.66;99908.46;79548;1295;3011840;-73
2023/10/30 02:32:47;;;;;;;37.00;11.60;;;;;;;10.85;77.62;99911.55;78218;1298;3026352;-69
2023/10/30 02:35:15;;;;;;;30.80;12.80;;;;;;;10.60;78.58;99914.44;79370;1297;3013174;-71
2023/10/30 02:37:41;;;;;;;31.30;11.60;;;;;;;10.39;79.14;99923.79;79602;1295;3011432;-65
2023/10/30 02:40:09;;;;;;;25.00;12.60;;;;;;;10.11;80.06;99924.69;78302;1295;3048778;-71
2023/10/30 02:42:36;;;;;;;24.70;11.10;;;;;;;9.96;80.66;99930.70;79490;1295;3012889;-69
2023/10/30 02:45:05;;;;;;;25.20;9.10;;;;;;;9.74;81.85;99936.55;79567;1295;3011654;-69
2023/10/30 02:47:34;;;;;;;21.70;9.90;;;;;;;10.12;81.13;99938.44;78377;1295;3053155;-72
2023/10/30 02:50:01;;;;;;;30.90;11.60;;;;;;;10.59;78.88;99932.20;79638;1295;3012842;-70
2023/10/30 02:52:31;;;;;;;30.40;11.20;;;;;;;10.45;78.72;99934.52;79585;1296;3013670;-68
2023/10/30 02:54:59;;;;;;;29.20;11.90;;;;;;;10.23;79.57;99937.52;78355;1298;3048690;-68
2023/10/30 02:57:26;;;;;;;27.00;12.80;;;;;;;10.06;79.98;99938.05;79578;1298;3013490;-72
2023/10/30 02:59:52;;;;;;;30.00;13.10;;;;;;;9.87;80.89;99937.44;79608;1298;3011374;-68
2023/10/30 03:02:20;;;;;;;31.10;13.20;;;;;;;9.75;81.28;99941.86;78251;1301;3025983;-68
2023/10/30 03:04:47;;;;;;;31.80;12.40;;;;;;;9.62;82.01;99936.61;79600;1295;3018414;-69
2023/10/30 03:07:15;;;;;;;25.40;11.00;;;;;;;9.54;82.35;99928.91;79540;1298;3011808;-66
2023/10/30 03:09:43;;;;;;;24.10;10.80;;;;;;;9.96;80.87;99925.45;78344;1295;3049132;-68
2023/10/30 03:12:09;;;;;;;27.30;11.60;;;;;;;10.44;78.78;99926.52;79572;1298;3018532;-72
2023/10/30 03:14:36;;;;;;;30.40;12.60;;;;;;;10.51;77.77;99932.98;79538;1298;3011916;-71
2023/10/30 03:17:05;;;;;;;35.20;13.90;;;;;;;10.33;78.35;99930.77;78344;1296;3026785;-70
2023/10/30 03:19:32;;;;;;;30.00;13.20;;;;;;;10.14;79.01;99933.64;79510;1298;3013563;-69
2023/10/30 03:21:59;;;;;;;38.00;15.20;;;;;;;9.99;79.48;99939.84;79615;1296;3012949;-73
2023/10/30 03:24:27;;;;;;;36.70;15.70;;;;;;;9.86;80.24;99942.58;78224;1296;3049606;-70
2023/10/30 03:26:53;;;;;;;35.20;15.00;;;;;;;9.73;80.87;99939.16;79510;1298;3019179;-69
2023/10/30 03:29:20;;;;;;;34.60;12.30;;;;;;;9.68;81.39;99932.63;79392;1296;3011895;-67
2023/10/30 03:31:52;;;;;;;35.70;13.70;;;;;;;10.15;79.67;99937.27;78367;1298;3026148;-71
2023/10/30 03:34:19;;;;;;;39.90;15.60;;;;;;;10.76;77.14;99929.71;79555;1298;3013236;-69
2023/10/30 03:36:47;;;;;;;46.50;17.20;;;;;;;10.75;76.52;99934.83;78447;1298;3051440;-68
2023/10/30 03:39:14;;;;;;;38.60;15.40;;;;;;;10.50;77.37;99935.14;79611;1295;3018435;-68
2023/10/30 03:41:40;;;;;;;49.60;17.10;;;;;;;10.32;77.88;99935.00;79509;1295;3012635;-69
2023/10/30 03:44:08;;;;;;;41.90;17.10;;;;;;;10.15;78.62;99926.91;78397;1295;3028840;-67
2023/10/30 03:46:35;;;;;;;44.00;17.30;;;;;;;9.99;79.29;99925.49;79546;1295;3015265;-71
2023/10/30 03:49:01;;;;;;;48.50;19.10;;;;;;;9.81;79.97;99930.23;79656;1298;3011798;-69
2023/10/30 03:51:29;;;;;;;42.70;14.30;;;;;;;9.73;80.51;99924.30;78422;1295;3028468;-68
2023/10/30 03:53:55;;;;;;;42.80;15.60;;;;;;;10.24;78.96;99921.93;79469;1295;3013481;-72
2023/10/30 03:56:22;;;;;;;44.80;15.90;;;;;;;10.64;76.89;99921.10;79521;1296;3011580;-68
2023/10/30 03:58:50;;;;;;;49.10;17.20;;;;;;;10.61;76.58;99920.17;78351;1302;3025979;-72
2023/10/30 04:01:17;;;;;;;38.80;14.80;;;;;;;10.47;77.19;99923.55;79586;1295;3019278;-69
2023/10/30 04:03:43;;;;;;;45.20;15.90;;;;;;;10.19;78.25;99928.63;79511;1295;3013072;-71
2023/10/30 04:06:11;;;;;;;44.00;16.40;;;;;;;10.06;78.63;99928.94;78545;1298;3026426;-68
2023/10/30 04:08:39;;;;;;;43.90;15.90;;;;;;;9.86;79.46;99929.60;79613;1295;3020533;-69
2023/10/30 04:11:11;;;;;;;42.10;16.00;;;;;;;9.68;80.20;99928.55;79520;1295;3011734;-68
2023/10/30 04:13:39;;;;;;;34.70;13.60;;;;;;;9.50;81.29;99927.89;78208;1301;3050333;-69
2023/10/30 04:16:06;;;;;;;35.50;14.70;;;;;;;9.95;79.99;99936.14;79461;1301;3013281;-72
2023/10/30 04:18:32;;;;;;;35.90;14.20;;;;;;;10.17;78.60;99934.89;79447;1300;3011787;-71
2023/10/30 04:21:00;;;;;;;37.60;14.20;;;;;;;10.15;78.27;99936.72;78211;1295;3026459;-70
2023/10/30 04:23:26;;;;;;;32.20;14.10;;;;;;;10.03;78.55;99939.29;79522;1295;3013101;-69
2023/10/30 04:25:52;;;;;;;43.70;15.50;;;;;;;9.82;79.33;99935.59;79414;1300;3011919;-68
2023/10/30 04:28:20;;;;;;;36.10;15.00;;;;;;;9.70;80.04;99939.33;78223;1298;3027092;-69
2023/10/30 04:30:47;;;;;;;39.60;15.20;;;;;;;9.54;80.65;99942.02;79414;1297;3019465;-73
2023/10/30 04:33:13;;;;;;;44.70;16.30;;;;;;;9.38;81.41;99947.36;79440;1294;3011608;-70
2023/10/30 04:35:41;;;;;;;37.90;14.00;;;;;;;9.26;82.21;99948.27;78358;1295;3028059;-69
2023/10/30 04:38:08;;;;;;;30.10;12.40;;;;;;;9.72;80.87;99948.67;79470;1296;3019125;-72
2023/10/30 04:40:34;;;;;;;34.30;13.90;;;;;;;10.07;78.68;99949.56;79693;1298;3013348;-70
2023/10/30 04:43:02;;;;;;;37.40;14.40;;;;;;;10.05;78.54;99941.45;78334;1295;3026595;-73
2023/10/30 04:45:29;;;;;;;37.20;14.40;;;;;;;9.98;78.61;99945.98;79617;1298;3018627;-70
2023/10/30 04:47:56;;;;;;;39.10;14.20;;;;;;;9.84;78.91;99945.79;79734;1295;3011289;-71
2023/10/30 04:50:24;;;;;;;29.70;12.60;;;;;;;9.75;79.17;99947.31;78399;1298;3026956;-70
2023/10/30 04:52:50;;;;;;;30.60;13.50;;;;;;;9.72;79.35;99944.48;79674;1295;3014335;-72
2023/10/30 04:55:17;;;;;;;32.80;12.10;;;;;;;9.67;79.55;99940.52;79530;1295;3013081;-71
2023/10/30 04:57:45;;;;;;;27.20;10.70;;;;;;;9.67;79.55;99942.29;78434;1295;3026638;-69
2023/10/30 05:00:12;;;;;;;24.30;9.80;;;;;;;10.14;77.75;99937.31;79533;1298;3011653;-70
2023/10/30 05:02:38;;;;;;;24.90;11.10;;;;;;;10.61;75.54;99933.49;79575;1296;3013013;-72
2023/10/30 05:05:06;;;;;;;30.70;10.90;;;;;;;10.58;75.49;99931.21;78284;1296;3051405;-71
2023/10/30 05:07:33;;;;;;;28.10;10.70;;;;;;;10.51;75.23;99933.32;79579;1296;3015714;-71
2023/10/30 05:09:59;;;;;;;25.00;10.00;;;;;;;10.32;75.73;99938.84;79585;1296;3013416;-69
2023/10/30 05:12:27;;;;;;;29.90;10.10;;;;;;;10.27;75.97;99940.83;78390;1295;3027459;-70
2023/10/30 05:14:53;;;;;;;26.50;10.20;;;;;;;10.18;76.30;99935.69;79587;1298;3013327;-68
2023/10/30 05:17:20;;;;;;;26.10;10.70;;;;;;;10.14;76.54;99937.81;79478;1298;3011595;-69
2023/10/30 05:19:48;;;;;;;22.00;9.80;;;;;;;10.05;76.84;99942.12;78397;1295;3029820;-67
2023/10/30 05:22:14;;;;;;;25.80;9.20;;;;;;;10.06;76.88;99942.42;79606;1295;3020440;-69
2023/10/30 05:24:42;;;;;;;27.60;8.90;;;;;;;10.50;75.63;99952.29;79586;1298;3012849;-68
2023/10/30 05:27:10;;;;;;;29.00;11.00;;;;;;;10.93;73.54;99946.34;78356;1296;3048904;-67
2023/10/30 05:29:36;;;;;;;22.80;10.00;;;;;;;11.01;73.09;99947.45;79582;1295;3013244;-70
2023/10/30 05:32:06;;;;;;;28.80;10.50;;;;;;;10.88;73.16;99947.98;79588;1298;3011705;-69
2023/10/30 05:34:34;;;;;;;29.70;10.90;;;;;;;10.69;74.13;99956.16;78390;1301;3051420;-71
2023/10/30 05:37:04;;;;;;;27.30;10.40;;;;;;;10.61;74.24;99959.07;79877;1295;3013292;-69
2023/10/30 05:39:32;;;;;;;31.40;11.20;;;;;;;10.52;74.73;99963.89;78413;1298;3053292;-70
2023/10/30 05:41:59;;;;;;;39.40;11.00;;;;;;;10.45;75.13;99961.86;79770;1298;3013061;-67
2023/10/30 05:44:25;;;;;;;28.80;11.80;;;;;;;10.45;75.23;99964.67;79599;1295;3011910;-65
2023/10/30 05:46:53;;;;;;;33.80;12.20;;;;;;;10.39;75.44;99963.52;78455;1294;3026605;-70
2023/10/30 05:49:19;;;;;;;32.10;11.30;;;;;;;10.32;75.83;99965.98;79698;1295;3013293;-69
2023/10/30 05:51:46;;;;;;;25.90;9.80;;;;;;;10.35;75.81;99966.73;79690;1295;3011702;-64
2023/10/30 05:54:14;;;;;;;29.20;11.20;;;;;;;10.94;73.90;99965.37;78511;1295;3026104;-72
2023/10/30 05:56:40;;;;;;;28.60;12.00;;;;;;;11.19;72.41;99969.29;79834;1298;3013829;-73
2023/10/30 05:59:07;;;;;;;35.20;13.30;;;;;;;11.29;72.02;99968.75;79679;1298;3011941;-70
2023/10/30 06:01:35;;;;;;;33.90;13.60;;;;;;;11.29;71.69;99971.55;78347;1297;3026844;-69
2023/10/30 06:04:02;;;;;;;41.10;14.10;;;;;;;11.09;72.64;99976.16;79607;1295;3015454;-69
2023/10/30 06:06:29;;;;;;;41.30;15.30;;;;;;;10.96;73.15;99980.88;79573;1294;3011701;-69
2023/10/30 06:08:57;;;;;;;38.20;15.90;;;;;;;10.94;73.61;99985.22;78411;1295;3053360;-68
2023/10/30 06:11:23;;;;;;;42.10;15.90;;;;;;;10.83;74.07;99986.46;79425;1298;3013280;-67
2023/10/30 06:13:51;;;;;;;42.00;16.90;;;;;;;10.76;74.69;99982.48;79843;1298;3011641;-71
2023/10/30 06:16:19;;;;;;;48.20;16.90;;;;;;;10.71;74.96;99986.56;78677;1296;3068576;-70
2023/10/30 06:18:46;;;;;;;48.70;17.60;;;;;;;10.69;75.42;99988.11;79763;1298;3018944;-69
2023/10/30 06:21:18;;;;;;;52.80;18.10;;;;;;;10.67;75.59;99993.63;79682;1295;3011665;-70
2023/10/30 06:23:46;;;;;;;48.80;16.50;;;;;;;10.65;75.75;99997.40;78354;1296;3051699;-70
2023/10/30 06:26:13;;;;;;;49.90;16.90;;;;;;;11.16;74.07;99992.92;79663;1298;3014021;-69
2023/10/30 06:28:40;;;;;;;46.90;17.70;;;;;;;11.62;72.15;99989.14;79721;1295;3013308;-73
2023/10/30 06:31:18;;;;;;;48.50;17.60;;;;;;;11.68;72.02;99990.91;78527;1298;3069695;-69
2023/10/30 06:33:46;;;;;;;47.60;17.70;;;;;;;11.66;71.99;99989.12;78494;1295;3051626;-71
2023/10/30 06:36:12;;;;;;;60.30;20.20;;;;;;;11.48;72.49;99994.00;79852;1295;3018537;-72
2023/10/30 06:38:39;;;;;;;59.30;21.20;;;;;;;11.34;73.42;99992.10;79690;1296;3011730;-71
2023/10/30 06:41:06;;;;;;;61.60;21.00;;;;;;;11.19;74.06;99996.98;78555;1298;3029284;-71
2023/10/30 06:43:33;;;;;;;57.50;20.30;;;;;;;11.12;74.93;99993.66;79674;1295;3013167;-72
2023/10/30 06:46:00;;;;;;;61.10;23.40;;;;;;;11.06;75.19;100002.22;79779;1296;3011927;-69
2023/10/30 06:48:28;;;;;;;58.40;21.30;;;;;;;11.11;75.39;100001.25;78712;1298;3028361;-70
2023/10/30 06:50:55;;;;;;;62.40;21.00;;;;;;;11.12;75.54;100006.16;79725;1295;3013624;-74
2023/10/30 06:53:24;;;;;;;60.70;21.80;;;;;;;11.10;75.45;100007.48;79843;1294;3012164;-67
2023/10/30 06:55:52;;;;;;;53.30;18.30;;;;;;;11.08;75.12;100007.43;78624;1298;3050555;-70
2023/10/30 06:58:21;;;;;;;56.10;20.20;;;;;;;11.00;75.79;100011.36;79657;1295;3013674;-67
2023/10/30 07:00:48;;;;;;;50.80;15.70;;;;;;;11.08;75.96;100005.13;79776;1295;3013320;-73
2023/10/30 07:03:16;;;;;;;53.90;16.10;;;;;;;11.63;74.40;100001.20;78504;1295;3049731;-69
2023/10/30 07:05:42;;;;;;;51.00;17.80;;;;;;;12.13;72.30;100000.83;79672;1298;3019236;-69
2023/10/30 07:08:08;;;;;;;38.30;14.40;;;;;;;12.05;71.90;100003.44;79873;1296;3011486;-72
2023/10/30 07:10:36;;;;;;;36.30;14.70;;;;;;;11.93;71.79;99993.38;78448;1295;3028341;-68
2023/10/30 07:13:03;;;;;;;38.20;14.30;;;;;;;11.72;72.76;99998.23;79671;1298;3013165;-68
2023/10/30 07:15:29;;;;;;;35.40;13.90;;;;;;;11.54;73.57;100002.77;79495;1295;3013435;-71
2023/10/30 07:17:57;;;;;;;35.90;14.20;;;;;;;11.45;73.78;100000.48;78520;1295;3026427;-68
2023/10/30 07:20:24;;;;;;;38.10;13.00;;;;;;;11.45;73.66;99996.27;79609;1298;3013448;-72
2023/10/30 07:22:50;;;;;;;33.30;12.60;;;;;;;11.39;73.95;99995.36;79593;1295;3013515;-68
2023/10/30 07:25:18;;;;;;;34.40;12.10;;;;;;;11.43;74.09;99998.84;78547;1298;3026422;-68
2023/10/30 07:27:44;;;;;;;41.10;14.20;;;;;;;11.41;73.92;99999.45;79852;1295;3013297;-69
2023/10/30 07:30:11;;;;;;;36.10;13.40;;;;;;;11.41;74.21;99999.97;79882;1296;3011549;-66
2023/10/30 07:32:39;;;;;;;37.00;13.40;;;;;;;11.47;74.48;99994.73;78463;1298;3025015;-67
2023/10/30 07:35:06;;;;;;;29.70;13.10;;;;;;;11.55;74.30;100001.84;79769;1295;3019102;-69
2023/10/30 07:37:36;;;;;;;25.60;10.10;;;;;;;11.66;73.98;99999.63;79659;1298;3011594;-68
2023/10/30 07:40:05;;;;;;;32.20;9.70;;;;;;;12.22;72.26;99995.38;78455;1295;3050126;-67
2023/10/30 07:42:31;;;;;;;28.30;9.20;;;;;;;12.63;70.08;99992.41;79629;1298;3011638;-68
2023/10/30 07:44:58;;;;;;;27.70;9.50;;;;;;;12.76;68.73;99991.31;79641;1296;3012054;-69
2023/10/30 07:47:26;;;;;;;25.50;9.40;;;;;;;12.84;69.34;99987.48;78489;1298;3052717;-68
2023/10/30 07:49:52;;;;;;;23.40;9.90;;;;;;;13.01;68.79;99982.55;79816;1295;3012528;-69
2023/10/30 07:52:20;;;;;;;22.00;8.90;;;;;;;12.91;68.93;99984.38;79625;1298;3011594;-68
2023/10/30 07:54:48;;;;;;;19.10;7.90;;;;;;;12.94;68.53;99982.48;78611;1298;3050950;-71
2023/10/30 07:57:14;;;;;;;21.50;8.70;;;;;;;12.91;68.85;99982.48;79639;1298;3013144;-70
2023/10/30 07:59:41;;;;;;;24.10;9.00;;;;;;;12.96;68.89;99983.77;79606;1295;3011865;-70
2023/10/30 08:02:09;;;;;;;18.60;8.00;;;;;;;13.01;68.79;99974.84;78563;1298;3028808;-71
2023/10/30 08:04:35;;;;;;;18.60;8.10;;;;;;;13.15;68.40;99975.19;79766;1296;3013427;-67
2023/10/30 08:07:02;;;;;;;17.80;7.30;;;;;;;13.20;68.80;99967.30;79704;1294;3011589;-69
2023/10/30 08:09:30;;;;;;;19.40;7.60;;;;;;;13.34;68.09;99966.23;78689;1295;3026002;-69
2023/10/30 08:11:56;;;;;;;18.10;7.20;;;;;;;13.35;68.07;99969.02;79704;1298;3013051;-71
2023/10/30 08:14:23;;;;;;;16.90;7.30;;;;;;;13.46;67.62;99967.95;79743;1295;3013144;-69
2023/10/30 08:16:51;;;;;;;18.60;7.40;;;;;;;13.54;67.69;99966.04;78504;1295;3026121;-71
2023/10/30 08:19:17;;;;;;;11.20;6.30;;;;;;;13.62;67.77;99965.89;79662;1295;3019824;-70
2023/10/30 08:21:44;;;;;;;14.10;7.10;;;;;;;13.72;67.36;99966.98;79747;1295;3011955;-73
2023/10/30 08:24:11;;;;;;;14.50;6.50;;;;;;;13.83;66.81;99965.94;78433;1298;3027565;-72
2023/10/30 08:26:38;;;;;;;12.90;6.70;;;;;;;13.94;66.46;99967.80;79579;1298;3012907;-70
2023/10/30 08:29:05;;;;;;;13.40;6.60;;;;;;;14.03;66.22;99966.31;79667;1295;3011830;-74
2023/10/30 08:31:33;;;;;;;11.60;5.70;;;;;;;14.15;65.60;99963.61;78425;1298;3026581;-69
2023/10/30 08:34:01;;;;;;;13.90;6.00;;;;;;;14.27;65.57;99957.89;79765;1295;3018533;-68
2023/10/30 08:36:27;;;;;;;16.20;6.30;;;;;;;14.48;64.54;99954.84;79664;1295;3011841;-71
2023/10/30 08:38:55;;;;;;;19.60;6.70;;;;;;;14.62;64.56;99959.73;78391;1298;3052440;-70
2023/10/30 08:41:23;;;;;;;15.00;6.20;;;;;;;14.73;64.31;99957.92;79871;1298;3012713;-70
2023/10/30 08:43:50;;;;;;;10.70;6.00;;;;;;;14.84;63.83;99958.73;79980;1298;3011889;-71
2023/10/30 08:46:20;;;;;;;14.40;5.90;;;;;;;14.93;63.50;99956.87;78353;1298;3052481;-69
2023/10/30 08:48:47;;;;;;;10.50;5.20;;;;;;;15.14;62.50;99954.48;79710;1295;3011936;-69
2023/10/30 08:51:15;;;;;;;13.90;6.90;;;;;;;15.25;62.07;99950.67;79406;1296;3012225;-69
2023/10/30 08:53:42;;;;;;;14.30;5.50;;;;;;;15.38;61.84;99944.84;79658;1296;3013371;-68
2023/10/30 08:56:10;;;;;;;12.90;5.70;;;;;;;15.47;61.40;99942.40;79654;1295;3011599;-69
2023/10/30 08:58:38;;;;;;;15.40;5.70;;;;;;;15.55;61.39;99942.12;78689;1298;3053802;-71
2023/10/30 09:01:05;;;;;;;12.10;5.30;;;;;;;15.67;60.45;99943.76;79838;1295;3018348;-68
2023/10/30 09:03:31;;;;;;;13.20;5.50;;;;;;;15.74;58.95;99942.13;79695;1295;3011687;-67
2023/10/30 09:05:59;;;;;;;11.50;4.70;;;;;;;15.94;58.32;99933.48;78485;1298;3026290;-68
2023/10/30 09:08:25;;;;;;;12.50;5.00;;;;;;;15.98;56.23;99935.80;79781;1302;3018573;-69
2023/10/30 09:10:52;;;;;;;8.70;4.00;;;;;;;15.99;56.20;99935.55;79727;1295;3011969;-70
2023/10/30 09:13:20;;;;;;;10.40;4.00;;;;;;;16.18;55.80;99928.12;78571;1298;3028098;-70
2023/10/30 09:15:46;;;;;;;14.40;4.30;;;;;;;16.24;55.44;99924.67;79651;1295;3013415;-70
2023/10/30 09:18:12;;;;;;;9.20;5.20;;;;;;;16.29;55.20;99927.23;79807;1295;3013089;-68
2023/10/30 09:20:40;;;;;;;14.40;5.90;;;;;;;16.40;53.90;99934.02;78479;1295;3027094;-68
2023/10/30 09:23:07;;;;;;;23.90;7.90;;;;;;;16.48;53.19;99932.01;79827;1295;3018516;-72
2023/10/30 09:25:34;;;;;;;21.50;8.60;;;;;;;16.58;53.14;99928.95;79820;1298;3011559;-69
2023/10/30 09:28:02;;;;;;;11.60;5.50;;;;;;;16.79;53.48;99918.10;78418;1298;3026523;-70
2023/10/30 09:30:32;;;;;;;14.80;4.60;;;;;;;16.91;52.26;99927.06;79742;1298;3013020;-71
2023/10/30 09:33:00;;;;;;;15.80;5.30;;;;;;;16.83;51.55;99925.92;79262;1298;3013556;-69
2023/10/30 09:35:31;;;;;;;9.40;5.00;;;;;;;16.97;51.64;99921.29;79714;1296;3013619;-71
2023/10/30 09:37:59;;;;;;;11.40;4.60;;;;;;;17.13;51.92;99917.14;78428;1296;3054407;-73
2023/10/30 09:40:26;;;;;;;9.90;4.70;;;;;;;17.12;51.66;99917.80;79811;1295;3014131;-72
2023/10/30 09:42:54;;;;;;;11.20;4.60;;;;;;;17.02;51.33;99920.14;79954;1295;3011592;-70
2023/10/30 09:45:26;;;;;;;8.40;4.10;;;;;;;16.95;51.54;99909.25;78666;1295;3068211;-70
2023/10/30 09:47:59;;;;;;;10.20;4.40;;;;;;;17.14;51.23;99911.64;79835;1294;3012805;-71
2023/10/30 09:50:27;;;;;;;5.80;3.40;;;;;;;17.18;50.58;99919.39;78470;1298;3056779;-73
2023/10/30 09:52:55;;;;;;;8.40;3.60;;;;;;;17.15;50.64;99922.16;79939;1298;3011884;-68
2023/10/30 09:55:22;;;;;;;9.10;4.00;;;;;;;17.23;50.80;99917.08;79716;1295;3011840;-69
2023/10/30 09:57:51;;;;;;;8.80;3.20;;;;;;;17.44;50.51;99911.50;78547;1298;3054803;-69
2023/10/30 10:00:18;;;;;;;7.30;3.20;;;;;;;17.49;49.99;99906.48;79692;1298;3013019;-71
2023/10/30 10:02:51;;;;;;;9.00;3.20;;;;;;;17.48;49.96;99911.82;79810;1295;3011564;-70
2023/10/30 10:05:19;;;;;;;9.00;3.40;;;;;;;17.49;49.62;99911.80;78307;1295;3056230;-69
2023/10/30 10:07:45;;;;;;;6.70;2.60;;;;;;;17.59;49.59;99911.43;79809;1298;3012847;-73
2023/10/30 10:10:17;;;;;;;8.00;2.70;;;;;;;17.70;50.05;99907.20;79469;1296;3011783;-70
2023/10/30 10:12:48;;;;;;;6.70;1.90;;;;;;;17.62;49.46;99905.91;78520;1298;3051793;-73
2023/10/30 10:15:15;;;;;;;8.10;2.90;;;;;;;17.59;50.01;99903.63;79815;1298;3013451;-70
2023/10/30 10:17:52;;;;;;;6.60;2.30;;;;;;;17.59;50.48;99904.71;78474;1298;3026016;-71
2023/10/30 10:20:21;;;;;;;9.10;2.70;;;;;;;17.78;49.87;99897.17;78350;1298;3052179;-70
2023/10/30 10:22:48;;;;;;;5.30;2.40;;;;;;;17.92;49.45;99899.69;77301;1298;3526692;-68
2023/10/30 10:25:18;;;;;;;7.00;2.50;;;;;;;18.00;49.01;99898.49;79705;1296;3011575;-69
2023/10/30 10:27:48;;;;;;;9.20;2.60;;;;;;;18.19;49.00;99901.34;79177;1302;3050593;-68
2023/10/30 10:30:16;;;;;;;6.60;2.20;;;;;;;18.39;48.61;99896.08;79644;1295;3011982;-69
2023/10/30 10:32:44;;;;;;;6.30;2.30;;;;;;;18.34;48.43;99896.33;78560;1298;3026614;-68
2023/10/30 10:35:11;;;;;;;3.80;2.10;;;;;;;18.28;48.25;99899.48;79896;1295;3013063;-70
2023/10/30 10:37:38;;;;;;;9.70;3.30;;;;;;;18.28;47.53;99896.63;79641;1295;3011876;-68
2023/10/30 10:40:07;;;;;;;7.10;3.40;;;;;;;18.40;47.23;99897.02;78410;1296;3048820;-69
2023/10/30 10:42:33;;;;;;;5.70;2.40;;;;;;;18.50;47.40;99888.77;79568;1295;3013491;-69
2023/10/30 10:45:01;;;;;;;8.00;2.70;;;;;;;18.40;47.50;99890.52;79373;1301;3013064;-70
2023/10/30 10:47:29;;;;;;;7.30;2.60;;;;;;;18.40;47.51;99894.42;78422;1298;3052311;-69
2023/10/30 10:49:57;;;;;;;8.60;2.70;;;;;;;18.28;48.03;99888.38;79548;1295;3013209;-70
2023/10/30 10:52:23;;;;;;;7.60;2.80;;;;;;;18.42;48.09;99890.17;79723;1298;3011742;-68
2023/10/30 10:55:00;;;;;;;6.30;2.50;;;;;;;18.55;48.06;99876.45;78265;1301;3027068;-67
2023/10/30 10:57:33;;;;;;;8.00;3.40;;;;;;;18.50;47.79;99885.92;78385;1296;3053384;-68
2023/10/30 11:00:06;;;;;;;14.10;3.20;;;;;;;18.56;47.74;99873.98;79553;1298;3011842;-70
2023/10/30 11:02:37;;;;;;;4.40;2.50;;;;;;;18.63;46.63;99879.63;78356;1301;3053243;-70
2023/10/30 11:05:05;;;;;;;4.70;2.20;;;;;;;18.60;45.75;99886.15;79658;1295;3011750;-69
2023/10/30 11:07:33;;;;;;;5.90;2.60;;;;;;;18.58;45.66;99881.69;78399;1301;3027372;-67